Time;durP1;ratioP1;P1;durP2;ratioP2;P2;SDS_P1;SDS_P2;PMS_P1;PMS_P2;Temp;Humidity;BMP_temperature;BMP_pressure;BME280_temperature;BME280_humidity;BME280_pressure;Samples;Min_cycle;Max_cycle;Signal;HPM_P1;HPM_P2
2022/04/16 00:01:52;;;;;;;2.40;2.20;;;;;;;;;;5120065;28;20211;-80
2022/04/16 00:04:21;;;;;;;3.50;2.53;;;;;;;;;;5120313;28;20205;-80
2022/04/16 00:06:49;;;;;;;3.40;2.40;;;;;;;;;;5119804;28;20231;-80
2022/04/16 00:09:19;;;;;;;4.17;2.30;;;;;;;;;;5119768;28;20201;-80
2022/04/16 00:11:47;;;;;;;4.00;2.60;;;;;;;;;;5119279;28;20238;-79
2022/04/16 00:14:15;;;;;;;5.23;2.57;;;;;;;;;;5119517;28;20678;-79
2022/04/16 00:16:45;;;;;;;3.10;2.80;;;;;;;;;;5119487;28;20221;-79
2022/04/16 00:19:13;;;;;;;6.13;2.80;;;;;;;;;;5118975;28;20228;-79
2022/04/16 00:21:41;;;;;;;4.10;2.97;;;;;;;;;;5119206;28;20201;-79
2022/04/16 00:24:09;;;;;;;2.50;2.30;;;;;;;;;;5119213;28;20209;-79
2022/04/16 00:26:40;;;;;;;4.17;2.43;;;;;;;;;;5118724;28;20216;-79
2022/04/16 00:29:08;;;;;;;5.43;2.80;;;;;;;;;;5119130;28;20250;-79
2022/04/16 00:31:36;;;;;;;4.13;2.97;;;;;;;;;;5119105;28;20292;-79
2022/04/16 00:34:05;;;;;;;3.10;2.90;;;;;;;;;;5119190;28;20209;-80
2022/04/16 00:36:33;;;;;;;5.00;2.57;;;;;;;;;;5119078;28;20232;-79
2022/04/16 00:39:01;;;;;;;4.73;2.87;;;;;;;;;;5119053;28;20220;-79
2022/04/16 00:41:29;;;;;;;3.27;2.97;;;;;;;;;;5119075;28;20216;-79
2022/04/16 00:43:58;;;;;;;5.00;2.87;;;;;;;;;;5118947;28;20680;-79
2022/04/16 00:46:26;;;;;;;2.77;2.20;;;;;;;;;;5105476;28;20224;-79
2022/04/16 00:48:55;;;;;;;2.50;2.30;;;;;;;;;;5118858;28;20694;-79
2022/04/16 00:51:23;;;;;;;2.70;2.43;;;;;;;;;;5118472;28;20222;-79
2022/04/16 00:53:51;;;;;;;3.17;2.57;;;;;;;;;;5118693;28;20201;-79
2022/04/16 00:56:18;;;;;;;5.87;2.53;;;;;;;;;;5118476;28;20217;-77
2022/04/16 00:58:46;;;;;;;5.00;2.40;;;;;;;;;;5118652;28;20231;-75
2022/04/16 01:01:16;;;;;;;5.30;2.80;;;;;;;;;;5118689;28;20211;-75
2022/04/16 01:03:45;;;;;;;3.73;2.57;;;;;;;;;;5118320;28;20272;-75
2022/04/16 01:06:15;;;;;;;2.73;2.53;;;;;;;;;;5118606;28;20224;-75
2022/04/16 01:08:44;;;;;;;3.27;2.43;;;;;;;;;;5118347;28;20241;-75
2022/04/16 01:11:12;;;;;;;4.30;2.57;;;;;;;;;;5118278;28;20208;-75
2022/04/16 01:13:40;;;;;;;2.93;2.57;;;;;;;;;;5118605;28;20212;-75
2022/04/16 01:16:08;;;;;;;5.20;2.70;;;;;;;;;;5118563;28;20217;-75
2022/04/16 01:18:45;;;;;;;3.33;2.53;;;;;;;;;;5118164;28;20582;-75
2022/04/16 01:21:13;;;;;;;2.67;2.47;;;;;;;;;;5117970;28;20202;-75
2022/04/16 01:23:43;;;;;;;7.20;2.93;;;;;;;;;;5118106;28;20563;-75
2022/04/16 01:26:12;;;;;;;3.63;2.50;;;;;;;;;;5117900;28;20227;-75
2022/04/16 01:28:41;;;;;;;3.67;3.00;;;;;;;;;;5118920;28;20539;-75
2022/04/16 01:31:09;;;;;;;3.10;2.60;;;;;;;;;;5118645;28;20201;-76
2022/04/16 01:33:37;;;;;;;3.57;2.73;;;;;;;;;;5119059;28;20204;-75
2022/04/16 01:36:05;;;;;;;3.00;2.80;;;;;;;;;;5118211;28;20224;-75
2022/04/16 01:38:33;;;;;;;3.70;2.90;;;;;;;;;;5118278;28;20231;-75
2022/04/16 01:41:03;;;;;;;3.33;2.90;;;;;;;;;;5117883;28;20205;-75
2022/04/16 01:43:31;;;;;;;3.23;2.87;;;;;;;;;;5118144;28;20205;-75
2022/04/16 01:45:59;;;;;;;5.33;2.90;;;;;;;;;;5116481;28;20800;-75
2022/04/16 01:48:27;;;;;;;3.43;2.77;;;;;;;;;;5117877;28;20201;-75
2022/04/16 01:50:55;;;;;;;3.83;2.73;;;;;;;;;;5117729;28;20205;-75
2022/04/16 01:53:23;;;;;;;5.63;2.87;;;;;;;;;;5116986;28;20203;-75
2022/04/16 01:55:51;;;;;;;3.90;3.20;;;;;;;;;;5117372;28;20225;-75
2022/04/16 01:58:21;;;;;;;2.83;2.63;;;;;;;;;;5117823;28;20231;-75
2022/04/16 02:00:49;;;;;;;5.03;3.30;;;;;;;;;;5118093;28;20219;-75
2022/04/16 02:03:21;;;;;;;3.90;2.90;;;;;;;;;;5117820;28;20633;-75
2022/04/16 02:05:49;;;;;;;2.90;2.67;;;;;;;;;;5122119;28;20315;-75
2022/04/16 02:08:17;;;;;;;3.77;3.20;;;;;;;;;;5122166;28;20215;-73
2022/04/16 02:10:45;;;;;;;3.37;2.87;;;;;;;;;;5108357;28;20635;-74
2022/04/16 02:13:13;;;;;;;2.97;2.77;;;;;;;;;;5122090;28;20204;-75
2022/04/16 02:15:43;;;;;;;3.37;3.10;;;;;;;;;;5122483;28;20274;-74
2022/04/16 02:18:11;;;;;;;3.70;3.07;;;;;;;;;;5121987;28;20291;-75
2022/04/16 02:20:43;;;;;;;4.87;3.00;;;;;;;;;;5122165;28;20219;-75
2022/04/16 02:23:12;;;;;;;3.93;2.87;;;;;;;;;;5121764;28;20200;-74
2022/04/16 02:25:43;;;;;;;4.63;3.30;;;;;;;;;;5121579;28;20240;-75
2022/04/16 02:28:11;;;;;;;2.87;2.57;;;;;;;;;;5121337;28;20211;-74
2022/04/16 02:30:40;;;;;;;4.27;3.00;;;;;;;;;;5121593;28;20205;-74
2022/04/16 02:33:10;;;;;;;3.40;3.03;;;;;;;;;;5121640;28;20219;-74
2022/04/16 02:35:38;;;;;;;5.60;3.30;;;;;;;;;;5121549;28;20229;-74
2022/04/16 02:38:07;;;;;;;6.27;3.17;;;;;;;;;;5121337;28;20210;-75
2022/04/16 02:40:35;;;;;;;4.00;3.60;;;;;;;;;;5121217;28;20224;-75
2022/04/16 02:43:03;;;;;;;4.17;3.20;;;;;;;;;;5121212;28;20211;-75
2022/04/16 02:48:18;;;;;;;4.90;3.43;;;;;;;;;;5109794;28;20204;-74
2022/04/16 02:50:46;;;;;;;4.20;3.27;;;;;;;;;;5120767;28;20223;-73
2022/04/16 02:53:14;;;;;;;7.80;3.23;;;;;;;;;;5121352;28;20742;-75
2022/04/16 02:55:46;;;;;;;4.63;3.23;;;;;;;;;;5120607;28;20585;-73
2022/04/16 02:58:14;;;;;;;3.27;2.80;;;;;;;;;;5121215;28;20205;-73
2022/04/16 03:00:42;;;;;;;6.63;3.77;;;;;;;;;;5121339;28;20292;-73
2022/04/16 03:03:10;;;;;;;3.90;2.97;;;;;;;;;;5120864;28;20256;-75
2022/04/16 03:05:41;;;;;;;8.00;3.50;;;;;;;;;;5121078;28;20231;-75
2022/04/16 03:08:09;;;;;;;5.20;3.40;;;;;;;;;;5120969;28;21136;-74
2022/04/16 03:10:37;;;;;;;4.47;3.63;;;;;;;;;;5120714;28;20201;-75
2022/04/16 03:13:05;;;;;;;3.40;3.10;;;;;;;;;;5120841;28;20205;-73
2022/04/16 03:18:19;;;;;;;4.47;3.40;;;;;;;;;;5117027;28;20307;-74
2022/04/16 03:20:49;;;;;;;4.93;3.60;;;;;;;;;;5120420;28;20228;-75
2022/04/16 03:23:17;;;;;;;3.70;3.40;;;;;;;;;;5120687;28;20227;-75
2022/04/16 03:25:45;;;;;;;5.90;3.53;;;;;;;;;;5120154;28;20228;-74
2022/04/16 03:28:13;;;;;;;4.03;3.63;;;;;;;;;;5120738;28;20652;-74
2022/04/16 03:30:41;;;;;;;3.87;3.50;;;;;;;;;;5120672;28;20208;-75
2022/04/16 03:33:09;;;;;;;3.43;3.10;;;;;;;;;;5120645;28;20216;-74
2022/04/16 03:35:37;;;;;;;3.77;3.33;;;;;;;;;;5120575;28;20220;-74
2022/04/16 03:38:07;;;;;;;3.87;3.50;;;;;;;;;;5119955;28;20204;-75
2022/04/16 03:40:36;;;;;;;3.80;3.30;;;;;;;;;;5120022;28;20264;-73
2022/04/16 03:43:04;;;;;;;4.50;3.80;;;;;;;;;;5120342;28;20211;-74
2022/04/16 03:45:34;;;;;;;3.50;3.20;;;;;;;;;;5120226;28;20228;-74
2022/04/16 03:48:03;;;;;;;5.13;3.73;;;;;;;;;;5120306;28;20208;-75
2022/04/16 03:50:31;;;;;;;4.30;3.70;;;;;;;;;;5119936;28;20219;-75
2022/04/16 03:52:59;;;;;;;6.10;4.10;;;;;;;;;;5119426;28;20254;-75
2022/04/16 04:01:01;;;;;;;5.27;3.30;;;;;;;;;;5119627;28;20238;-75
2022/04/16 04:03:30;;;;;;;5.00;3.73;;;;;;;;;;5119590;28;20289;-76
2022/04/16 04:06:00;;;;;;;4.67;3.40;;;;;;;;;;5119717;28;20228;-75
2022/04/16 04:08:28;;;;;;;4.20;3.40;;;;;;;;;;5119479;28;20205;-76
2022/04/16 04:10:57;;;;;;;5.10;3.30;;;;;;;;;;5119643;28;20264;-76
2022/04/16 04:13:25;;;;;;;3.90;3.50;;;;;;;;;;5119982;27;20211;-76
2022/04/16 04:15:53;;;;;;;4.23;3.80;;;;;;;;;;5119727;27;20225;-76
2022/04/16 04:18:22;;;;;;;8.13;3.60;;;;;;;;;;5119615;28;20211;-76
2022/04/16 04:20:50;;;;;;;4.53;4.00;;;;;;;;;;5119173;28;20702;-76
2022/04/16 04:23:19;;;;;;;4.43;3.50;;;;;;;;;;5118224;28;20210;-76
2022/04/16 04:25:47;;;;;;;3.57;3.27;;;;;;;;;;5119228;28;20228;-77
2022/04/16 04:28:16;;;;;;;6.90;4.00;;;;;;;;;;5118687;27;20569;-74
2022/04/16 04:30:44;;;;;;;4.60;3.47;;;;;;;;;;5119800;28;20212;-74
2022/04/16 04:33:12;;;;;;;4.33;3.63;;;;;;;;;;5119384;28;20572;-75
2022/04/16 04:35:40;;;;;;;4.40;3.30;;;;;;;;;;5119100;28;20754;-76
2022/04/16 04:38:08;;;;;;;4.23;3.93;;;;;;;;;;5119357;28;20204;-75
2022/04/16 04:40:36;;;;;;;4.10;3.70;;;;;;;;;;5119040;28;20256;-76
2022/04/16 04:43:04;;;;;;;3.73;3.33;;;;;;;;;;5119133;28;20200;-75
2022/04/16 04:45:34;;;;;;;4.37;3.80;;;;;;;;;;5117555;28;20630;-75
2022/04/16 04:48:02;;;;;;;3.87;3.57;;;;;;;;;;5118921;28;20211;-76
2022/04/16 04:50:30;;;;;;;4.97;3.80;;;;;;;;;;5118959;28;20219;-76
2022/04/16 04:52:58;;;;;;;5.03;3.60;;;;;;;;;;5118504;28;20234;-76
2022/04/16 04:55:26;;;;;;;4.87;3.63;;;;;;;;;;5118357;28;20231;-77
2022/04/16 04:57:55;;;;;;;4.30;3.67;;;;;;;;;;5118745;28;20217;-73
2022/04/16 05:00:23;;;;;;;4.70;4.00;;;;;;;;;;5117750;27;20238;-74
2022/04/16 05:02:52;;;;;;;6.77;4.67;;;;;;;;;;5118099;28;20228;-73
2022/04/16 05:05:20;;;;;;;4.10;3.70;;;;;;;;;;5117623;28;20624;-74
2022/04/16 05:07:49;;;;;;;5.13;4.47;;;;;;;;;;5118056;28;20686;-73
2022/04/16 05:10:18;;;;;;;5.40;3.87;;;;;;;;;;5118031;28;20197;-74
2022/04/16 05:12:46;;;;;;;6.57;4.23;;;;;;;;;;5115705;28;20304;-74
2022/04/16 05:15:15;;;;;;;5.20;4.17;;;;;;;;;;5118238;28;20197;-73
2022/04/16 05:17:43;;;;;;;4.70;4.27;;;;;;;;;;5115434;28;20197;-74
2022/04/16 05:20:13;;;;;;;7.63;4.07;;;;;;;;;;5117636;28;20242;-74
2022/04/16 05:22:40;;;;;;;6.07;4.67;;;;;;;;;;5118551;28;20351;-72
2022/04/16 05:25:09;;;;;;;4.27;3.60;;;;;;;;;;5117649;28;20201;-72
2022/04/16 05:27:37;;;;;;;4.87;3.77;;;;;;;;;;5117800;28;21714;-73
2022/04/16 05:30:11;;;;;;;4.60;4.20;;;;;;;;;;5116704;28;20553;-72
2022/04/16 05:32:40;;;;;;;4.63;3.97;;;;;;;;;;5117900;28;20206;-71
2022/04/16 05:35:09;;;;;;;5.07;3.73;;;;;;;;;;5115688;28;20674;-72
2022/04/16 05:37:38;;;;;;;6.67;3.80;;;;;;;;;;5117474;28;20726;-72
2022/04/16 05:40:07;;;;;;;4.53;3.77;;;;;;;;;;5105281;28;20213;-72
2022/04/16 05:42:39;;;;;;;4.60;4.03;;;;;;;;;;5117255;28;20193;-72
2022/04/16 05:45:09;;;;;;;4.90;3.60;;;;;;;;;;5113741;28;20231;-72
2022/04/16 05:47:38;;;;;;;3.83;3.30;;;;;;;;;;5117269;28;20283;-72
2022/04/16 05:50:06;;;;;;;4.13;3.70;;;;;;;;;;5114385;28;20196;-73
2022/04/16 05:52:35;;;;;;;3.93;3.50;;;;;;;;;;5117366;28;20197;-67
2022/04/16 05:55:05;;;;;;;5.50;3.50;;;;;;;;;;5112627;28;20284;-72
2022/04/16 05:57:33;;;;;;;5.03;3.57;;;;;;;;;;5117667;28;20197;-80
2022/04/16 06:00:01;;;;;;;5.57;3.80;;;;;;;;;;5117898;28;20207;-80
2022/04/16 06:02:29;;;;;;;3.40;3.00;;;;;;;;;;5116474;28;20679;-78
2022/04/16 06:04:57;;;;;;;5.87;3.30;;;;;;;;;;5118055;28;20204;-78
2022/04/16 06:07:25;;;;;;;4.57;3.73;;;;;;;;;;5117278;28;20201;-80
2022/04/16 06:09:52;;;;;;;4.10;3.53;;;;;;;;;;5117546;28;20325;-77
2022/04/16 06:12:23;;;;;;;5.23;3.67;;;;;;;;;;5117601;28;20571;-78
2022/04/16 06:14:51;;;;;;;3.57;3.00;;;;;;;;;;5117947;28;20226;-78
2022/04/16 06:17:19;;;;;;;3.90;3.50;;;;;;;;;;5115632;28;20583;-79
2022/04/16 06:19:47;;;;;;;4.47;3.23;;;;;;;;;;5113373;28;20204;-77
2022/04/16 06:22:20;;;;;;;4.63;3.67;;;;;;;;;;5115857;28;20246;-77
2022/04/16 06:24:48;;;;;;;3.40;3.03;;;;;;;;;;5115895;28;20224;-77
2022/04/16 06:27:16;;;;;;;3.67;3.37;;;;;;;;;;5116610;28;20225;-77
2022/04/16 06:29:46;;;;;;;4.47;3.00;;;;;;;;;;5116831;28;20231;-78
2022/04/16 06:32:14;;;;;;;4.63;3.37;;;;;;;;;;5117530;28;20203;-79
2022/04/16 06:34:42;;;;;;;3.90;3.40;;;;;;;;;;5117797;28;20232;-78
2022/04/16 06:37:10;;;;;;;3.40;2.93;;;;;;;;;;5117075;28;20227;-78
2022/04/16 06:39:38;;;;;;;4.50;3.83;;;;;;;;;;5117666;28;20201;-70
2022/04/16 06:42:06;;;;;;;3.60;3.30;;;;;;;;;;5116575;28;20719;-76
2022/04/16 06:44:34;;;;;;;4.43;3.03;;;;;;;;;;5115835;28;20200;-77
2022/04/16 06:47:04;;;;;;;3.63;3.33;;;;;;;;;;5116669;28;20221;-78
2022/04/16 06:49:32;;;;;;;5.17;3.57;;;;;;;;;;5112618;28;20200;-77
2022/04/16 06:52:00;;;;;;;4.27;3.87;;;;;;;;;;5114985;28;20277;-74
2022/04/16 06:54:28;;;;;;;3.90;3.57;;;;;;;;;;5113625;28;20284;-79
2022/04/16 06:56:56;;;;;;;4.10;3.30;;;;;;;;;;5115812;28;20229;-73
2022/04/16 06:59:24;;;;;;;5.13;4.33;;;;;;;;;;5116189;28;20247;-75
2022/04/16 07:01:53;;;;;;;3.80;3.30;;;;;;;;;;5115108;28;20220;-78
2022/04/16 07:04:22;;;;;;;5.97;3.43;;;;;;;;;;5117074;28;20222;-74
2022/04/16 07:06:50;;;;;;;5.13;3.50;;;;;;;;;;5109636;28;20221;-74
2022/04/16 07:09:18;;;;;;;14.43;4.60;;;;;;;;;;5108414;28;20225;-79
2022/04/16 07:11:46;;;;;;;4.03;3.63;;;;;;;;;;5113033;28;20193;-76
2022/04/16 07:14:15;;;;;;;3.57;3.17;;;;;;;;;;5120307;28;20205;-77
2022/04/16 07:16:43;;;;;;;4.33;3.40;;;;;;;;;;5118776;28;20224;-77
2022/04/16 07:19:11;;;;;;;4.40;3.13;;;;;;;;;;5116745;28;20204;-77
2022/04/16 07:21:40;;;;;;;4.30;3.27;;;;;;;;;;5111447;28;20213;-74
2022/04/16 07:24:09;;;;;;;5.63;4.33;;;;;;;;;;5114800;28;20722;-75
2022/04/16 07:26:37;;;;;;;3.87;3.43;;;;;;;;;;5113939;28;20653;-78
2022/04/16 07:29:05;;;;;;;6.57;3.47;;;;;;;;;;5109871;28;20202;-76
2022/04/16 07:31:33;;;;;;;4.43;3.43;;;;;;;;;;5111385;28;20605;-79
2022/04/16 07:34:01;;;;;;;4.77;3.33;;;;;;;;;;5110350;28;20282;-80
2022/04/16 07:36:29;;;;;;;4.13;3.43;;;;;;;;;;5112394;28;20221;-74
2022/04/16 07:38:59;;;;;;;4.83;3.40;;;;;;;;;;5109988;28;20223;-79
2022/04/16 07:41:27;;;;;;;4.17;3.33;;;;;;;;;;5111304;28;20226;-78
2022/04/16 07:43:55;;;;;;;3.47;3.17;;;;;;;;;;5110304;28;20205;-79
2022/04/16 07:46:25;;;;;;;4.17;3.37;;;;;;;;;;5109769;28;20225;-77
2022/04/16 07:48:54;;;;;;;4.87;3.30;;;;;;;;;;5107590;28;20280;-77
2022/04/16 07:51:21;;;;;;;3.87;3.57;;;;;;;;;;5107771;28;20209;-79
2022/04/16 07:53:49;;;;;;;4.53;3.30;;;;;;;;;;5113248;28;20211;-79
2022/04/16 07:56:19;;;;;;;4.37;3.33;;;;;;;;;;5116941;28;20213;-79
2022/04/16 07:58:47;;;;;;;4.20;3.10;;;;;;;;;;5118914;28;20674;-79
2022/04/16 08:01:15;;;;;;;4.83;3.13;;;;;;;;;;5118750;28;20197;-78
2022/04/16 08:03:43;;;;;;;3.47;2.90;;;;;;;;;;5117904;28;20557;-77
2022/04/16 08:06:11;;;;;;;4.60;3.10;;;;;;;;;;5116094;28;20213;-78
2022/04/16 08:08:40;;;;;;;3.77;2.93;;;;;;;;;;5118786;28;20212;-78
2022/04/16 08:11:08;;;;;;;4.13;3.03;;;;;;;;;;5118463;28;20207;-78
2022/04/16 08:13:38;;;;;;;5.30;3.57;;;;;;;;;;5118591;28;20207;-78
2022/04/16 08:16:06;;;;;;;4.17;3.30;;;;;;;;;;5118948;28;20216;-80
2022/04/16 08:18:34;;;;;;;3.40;3.10;;;;;;;;;;5115207;28;20278;-79
2022/04/16 08:21:02;;;;;;;3.43;3.13;;;;;;;;;;5118081;28;20548;-79
2022/04/16 08:23:30;;;;;;;4.97;3.20;;;;;;;;;;5118287;28;20716;-80
2022/04/16 08:25:58;;;;;;;5.20;3.53;;;;;;;;;;5116215;28;20227;-79
2022/04/16 08:28:26;;;;;;;3.43;3.13;;;;;;;;;;5117456;28;20209;-78
2022/04/16 08:30:56;;;;;;;4.13;3.17;;;;;;;;;;5118662;28;20204;-79
2022/04/16 08:33:24;;;;;;;4.07;3.03;;;;;;;;;;5117358;28;20201;-79
2022/04/16 08:35:52;;;;;;;4.00;3.27;;;;;;;;;;5118566;28;20220;-79
2022/04/16 08:38:20;;;;;;;4.23;3.20;;;;;;;;;;5118263;28;20660;-78
2022/04/16 08:40:50;;;;;;;4.03;3.40;;;;;;;;;;5118493;28;20206;-77
2022/04/16 08:43:18;;;;;;;4.60;3.63;;;;;;;;;;5118264;28;20216;-76
2022/04/16 08:45:49;;;;;;;5.73;3.80;;;;;;;;;;5118439;28;20264;-80
2022/04/16 08:48:20;;;;;;;5.10;3.40;;;;;;;;;;5117422;28;20203;-79
2022/04/16 08:50:49;;;;;;;6.23;3.83;;;;;;;;;;5116748;28;20200;-78
2022/04/16 08:53:16;;;;;;;3.43;3.13;;;;;;;;;;5118559;28;20205;-78
2022/04/16 08:55:44;;;;;;;4.17;3.73;;;;;;;;;;5117456;28;20321;-77
2022/04/16 08:58:12;;;;;;;4.70;3.50;;;;;;;;;;5118453;28;20197;-75
2022/04/16 09:00:41;;;;;;;3.40;3.10;;;;;;;;;;5116406;28;20255;-77
2022/04/16 09:03:09;;;;;;;4.33;3.50;;;;;;;;;;5118027;28;20237;-77
2022/04/16 09:05:38;;;;;;;3.53;3.23;;;;;;;;;;5117946;28;20261;-77
2022/04/16 09:08:07;;;;;;;6.57;3.37;;;;;;;;;;5118094;28;20201;-75
2022/04/16 09:10:39;;;;;;;4.23;3.40;;;;;;;;;;5116516;28;20547;-79
2022/04/16 09:13:07;;;;;;;6.70;3.47;;;;;;;;;;5117846;28;20201;-78
2022/04/16 09:15:35;;;;;;;6.70;4.90;;;;;;;;;;5113424;28;20285;-80
2022/04/16 09:18:04;;;;;;;4.50;3.70;;;;;;;;;;5116338;28;20201;-80
2022/04/16 09:20:33;;;;;;;6.33;3.47;;;;;;;;;;5116535;28;20232;-80
2022/04/16 09:23:02;;;;;;;3.83;3.20;;;;;;;;;;5117378;28;20250;-81
2022/04/16 09:25:31;;;;;;;5.43;2.83;;;;;;;;;;5117926;28;20256;-81
2022/04/16 09:28:07;;;;;;;3.73;3.30;;;;;;;;;;5117902;28;20205;-80
2022/04/16 09:30:37;;;;;;;4.97;3.60;;;;;;;;;;5117640;28;20204;-80
2022/04/16 09:33:08;;;;;;;3.40;3.10;;;;;;;;;;5117884;28;20208;-78
2022/04/16 09:35:36;;;;;;;7.03;4.13;;;;;;;;;;5117840;28;20312;-78
2022/04/16 09:38:14;;;;;;;6.13;3.33;;;;;;;;;;5117754;28;20232;-78
2022/04/16 09:40:46;;;;;;;5.40;3.80;;;;;;;;;;5117460;28;20221;-81
2022/04/16 09:43:14;;;;;;;3.50;2.83;;;;;;;;;;5116102;28;20247;-81
2022/04/16 09:45:42;;;;;;;4.03;3.60;;;;;;;;;;5116138;28;20220;-81
2022/04/16 09:48:11;;;;;;;3.77;3.47;;;;;;;;;;5118109;28;20215;-81
2022/04/16 09:50:40;;;;;;;3.67;3.20;;;;;;;;;;5117704;28;20212;-81
2022/04/16 09:53:10;;;;;;;4.63;3.10;;;;;;;;;;5117890;28;20197;-79
2022/04/16 09:55:40;;;;;;;5.77;3.47;;;;;;;;;;5116983;28;20236;-81
2022/04/16 09:58:09;;;;;;;6.83;3.50;;;;;;;;;;5115028;28;20200;-78
2022/04/16 10:00:38;;;;;;;3.53;3.20;;;;;;;;;;5118028;28;20197;-79
2022/04/16 10:03:27;;;;;;;4.60;2.63;;;;;;;;;;5116935;28;20233;-81
2022/04/16 10:05:57;;;;;;;10.27;3.43;;;;;;;;;;5116976;28;20664;-81
2022/04/16 10:08:26;;;;;;;4.90;3.37;;;;;;;;;;5117210;28;20200;-81
2022/04/16 10:10:57;;;;;;;3.30;2.80;;;;;;;;;;5117394;28;20201;-80
2022/04/16 10:13:30;;;;;;;4.30;2.87;;;;;;;;;;5117459;28;20212;-80
2022/04/16 10:16:02;;;;;;;2.43;2.20;;;;;;;;;;5116398;28;20255;-80
2022/04/16 10:18:33;;;;;;;5.87;3.03;;;;;;;;;;5114742;28;20205;-81
2022/04/16 10:21:01;;;;;;;4.60;2.90;;;;;;;;;;5117110;28;20731;-80
2022/04/16 10:23:30;;;;;;;3.53;3.00;;;;;;;;;;5117068;28;20228;-81
2022/04/16 10:26:04;;;;;;;5.27;2.30;;;;;;;;;;5119053;28;20565;-78
2022/04/16 10:28:34;;;;;;;4.40;2.57;;;;;;;;;;5113627;28;20241;-80
2022/04/16 10:31:02;;;;;;;3.00;2.80;;;;;;;;;;5121376;28;20211;-80
2022/04/16 10:33:31;;;;;;;4.97;2.30;;;;;;;;;;5112909;28;20203;-80
2022/04/16 10:36:00;;;;;;;2.70;2.13;;;;;;;;;;5120628;28;20233;-81
2022/04/16 10:38:33;;;;;;;2.93;2.70;;;;;;;;;;5121139;28;20215;-80
2022/04/16 10:41:03;;;;;;;3.20;2.33;;;;;;;;;;5120877;28;20213;-80
2022/04/16 10:43:57;;;;;;;4.67;2.50;;;;;;;;;;5114609;28;20224;-79
2022/04/16 10:46:25;;;;;;;4.47;2.23;;;;;;;;;;5117370;28;20269;-79
2022/04/16 10:48:54;;;;;;;4.27;2.13;;;;;;;;;;5120934;28;20260;-79
2022/04/16 10:51:23;;;;;;;4.20;2.13;;;;;;;;;;5120860;28;20215;-80
2022/04/16 10:53:51;;;;;;;5.37;2.43;;;;;;;;;;5120600;28;20686;-78
2022/04/16 10:56:21;;;;;;;3.00;2.37;;;;;;;;;;5119723;28;20724;-78
2022/04/16 10:58:49;;;;;;;5.80;2.87;;;;;;;;;;5120525;28;20204;-78
2022/04/16 11:01:24;;;;;;;3.40;2.20;;;;;;;;;;5119215;28;20240;-80
2022/04/16 11:03:53;;;;;;;2.30;2.10;;;;;;;;;;5120303;28;20641;-80
2022/04/16 11:06:21;;;;;;;4.90;2.20;;;;;;;;;;5119811;28;20233;-80
2022/04/16 11:08:50;;;;;;;5.33;2.43;;;;;;;;;;5120348;28;20208;-80
2022/04/16 11:11:18;;;;;;;1.90;1.77;;;;;;;;;;5115789;28;20205;-80
2022/04/16 11:13:48;;;;;;;1.97;1.77;;;;;;;;;;5120815;28;20208;-80
2022/04/16 11:16:21;;;;;;;4.20;2.07;;;;;;;;;;5119430;28;20223;-80
2022/04/16 11:18:49;;;;;;;2.33;2.07;;;;;;;;;;5120434;28;20201;-80
2022/04/16 11:21:21;;;;;;;2.63;2.33;;;;;;;;;;5120227;28;20204;-80
2022/04/16 11:23:50;;;;;;;2.40;1.93;;;;;;;;;;5119829;28;20331;-80
2022/04/16 11:34:37;;;;;;;5.23;2.33;;;;;;;;;;5119718;28;20642;-80
2022/04/16 11:37:26;;;;;;;2.30;2.00;;;;;;;;;;5119956;28;20205;-80
2022/04/16 11:40:01;;;;;;;6.27;2.27;;;;;;;;;;5119504;28;20272;-80
2022/04/16 11:42:30;;;;;;;4.80;2.80;;;;;;;;;;5118874;28;20225;-80
2022/04/16 11:44:59;;;;;;;4.40;3.03;;;;;;;;;;5117950;28;20227;-80
2022/04/16 11:47:28;;;;;;;6.63;2.80;;;;;;;;;;5118658;28;20205;-81
2022/04/16 11:49:57;;;;;;;3.10;2.53;;;;;;;;;;5119400;28;20211;-80
2022/04/16 11:52:26;;;;;;;4.17;2.47;;;;;;;;;;5119619;28;20242;-80
2022/04/16 11:55:01;;;;;;;2.50;2.20;;;;;;;;;;5116206;28;20205;-80
2022/04/16 11:57:29;;;;;;;5.33;2.23;;;;;;;;;;5119651;28;20204;-80
2022/04/16 11:59:59;;;;;;;3.00;2.13;;;;;;;;;;5119817;28;20209;-80
2022/04/16 12:02:31;;;;;;;4.03;2.53;;;;;;;;;;5119323;28;20241;-80
2022/04/16 12:05:09;;;;;;;3.90;2.10;;;;;;;;;;5119423;28;20319;-80
2022/04/16 12:07:38;;;;;;;3.33;2.20;;;;;;;;;;5116423;28;20201;-80
2022/04/16 12:10:06;;;;;;;5.13;2.10;;;;;;;;;;5119078;28;20238;-80
2022/04/16 12:12:42;;;;;;;4.37;2.47;;;;;;;;;;5119003;28;20213;-81
2022/04/16 12:15:11;;;;;;;4.27;2.10;;;;;;;;;;5118922;28;20201;-80
2022/04/16 12:17:40;;;;;;;3.47;2.00;;;;;;;;;;5119226;28;20207;-81
2022/04/16 12:20:09;;;;;;;5.13;2.00;;;;;;;;;;5119173;28;20201;-80
2022/04/16 12:22:48;;;;;;;2.20;2.00;;;;;;;;;;5118817;28;20291;-80
2022/04/16 12:25:17;;;;;;;3.33;1.97;;;;;;;;;;5118673;28;20235;-79
2022/04/16 12:27:46;;;;;;;3.80;1.80;;;;;;;;;;5118877;28;20215;-80
2022/04/16 12:30:16;;;;;;;2.87;1.90;;;;;;;;;;5118188;28;20575;-81
2022/04/16 12:32:55;;;;;;;4.10;2.10;;;;;;;;;;5117750;28;20205;-80
2022/04/16 12:35:24;;;;;;;3.73;1.93;;;;;;;;;;5116238;28;20216;-81
2022/04/16 12:37:53;;;;;;;2.20;2.00;;;;;;;;;;5118318;28;20197;-79
2022/04/16 12:40:22;;;;;;;3.53;2.07;;;;;;;;;;5118056;28;20196;-80
2022/04/16 12:42:50;;;;;;;3.37;2.03;;;;;;;;;;5118132;28;20660;-79
2022/04/16 12:45:20;;;;;;;2.03;1.90;;;;;;;;;;5117699;28;20235;-78
2022/04/16 12:47:50;;;;;;;2.53;1.70;;;;;;;;;;5117221;28;20196;-81
2022/04/16 12:50:18;;;;;;;2.23;1.90;;;;;;;;;;5118307;28;20197;-78
2022/04/16 12:52:46;;;;;;;4.83;2.13;;;;;;;;;;5117856;28;20197;-78
2022/04/16 12:55:14;;;;;;;3.20;2.03;;;;;;;;;;5117558;28;20193;-78
2022/04/16 12:57:44;;;;;;;3.40;1.70;;;;;;;;;;5117328;28;20566;-78
2022/04/16 13:00:13;;;;;;;3.50;1.77;;;;;;;;;;5118156;28;20283;-76
2022/04/16 13:02:44;;;;;;;3.53;2.90;;;;;;;;;;5117317;28;20292;-78
2022/04/16 13:05:13;;;;;;;2.17;1.40;;;;;;;;;;5117709;28;20213;-76
2022/04/16 13:07:41;;;;;;;4.10;1.83;;;;;;;;;;5117623;28;20205;-76
2022/04/16 13:10:09;;;;;;;1.80;1.70;;;;;;;;;;5117560;28;20197;-78
2022/04/16 13:12:38;;;;;;;5.33;1.93;;;;;;;;;;5117480;28;20205;-78
2022/04/16 13:15:07;;;;;;;3.67;1.33;;;;;;;;;;5117659;28;20199;-77
2022/04/16 13:17:35;;;;;;;3.50;1.47;;;;;;;;;;5117941;28;20209;-79
2022/04/16 13:20:06;;;;;;;2.37;1.77;;;;;;;;;;5115601;28;20197;-79
2022/04/16 13:22:34;;;;;;;2.30;1.80;;;;;;;;;;5117355;28;20208;-79
2022/04/16 13:25:04;;;;;;;2.20;1.50;;;;;;;;;;5117455;28;20216;-77
2022/04/16 13:27:32;;;;;;;1.93;1.73;;;;;;;;;;5117919;28;20201;-77
2022/04/16 13:30:02;;;;;;;2.83;1.60;;;;;;;;;;5117450;28;20538;-77
2022/04/16 13:32:30;;;;;;;3.23;2.27;;;;;;;;;;5117368;28;20197;-76
2022/04/16 13:34:58;;;;;;;2.73;1.67;;;;;;;;;;5117347;28;20228;-75
2022/04/16 13:37:27;;;;;;;1.50;1.40;;;;;;;;;;5117096;28;20634;-75
2022/04/16 13:42:41;;;;;;;3.27;1.70;;;;;;;;;;5115159;28;20212;-78
2022/04/16 13:45:09;;;;;;;2.50;1.60;;;;;;;;;;5116352;28;20223;-77
2022/04/16 13:47:37;;;;;;;2.77;1.90;;;;;;;;;;5114228;28;20201;-76
2022/04/16 13:50:05;;;;;;;2.17;1.50;;;;;;;;;;5117635;28;20209;-78
2022/04/16 13:52:35;;;;;;;2.13;1.70;;;;;;;;;;5116916;28;20214;-78
2022/04/16 13:55:04;;;;;;;2.20;1.60;;;;;;;;;;5117133;28;20328;-77
2022/04/16 13:57:32;;;;;;;1.87;1.67;;;;;;;;;;5117241;28;20199;-77
2022/04/16 14:00:00;;;;;;;2.43;1.53;;;;;;;;;;5117889;28;20200;-77
2022/04/16 14:02:30;;;;;;;1.50;1.40;;;;;;;;;;5120304;28;20278;-76
2022/04/16 14:07:45;;;;;;;3.00;1.80;;;;;;;;;;5120475;28;20207;-77
2022/04/16 14:10:13;;;;;;;2.83;1.80;;;;;;;;;;5120626;28;20196;-79
2022/04/16 14:12:41;;;;;;;2.23;1.77;;;;;;;;;;5120564;28;20268;-78
2022/04/16 14:15:09;;;;;;;1.80;1.70;;;;;;;;;;5119686;28;20196;-76
2022/04/16 14:17:37;;;;;;;1.60;1.50;;;;;;;;;;5120230;28;20213;-79
2022/04/16 14:20:06;;;;;;;5.27;1.80;;;;;;;;;;5120413;28;20202;-79
2022/04/16 14:22:34;;;;;;;4.37;1.93;;;;;;;;;;5120228;28;20743;-79
2022/04/16 14:25:03;;;;;;;3.63;1.50;;;;;;;;;;5119729;28;20224;-76
2022/04/16 14:27:31;;;;;;;1.70;1.60;;;;;;;;;;5114710;28;20309;-77
2022/04/16 14:29:59;;;;;;;1.53;1.37;;;;;;;;;;5119699;28;20201;-79
2022/04/16 14:32:27;;;;;;;3.90;1.70;;;;;;;;;;5120070;28;20198;-78
2022/04/16 14:34:55;;;;;;;1.50;1.40;;;;;;;;;;5118601;28;20241;-77
2022/04/16 14:37:23;;;;;;;1.73;1.10;;;;;;;;;;5120314;28;20681;-78
2022/04/16 14:39:51;;;;;;;3.87;1.40;;;;;;;;;;5119438;28;20738;-77
2022/04/16 14:42:21;;;;;;;5.20;1.83;;;;;;;;;;5119829;28;20202;-78
2022/04/16 14:44:52;;;;;;;2.30;1.67;;;;;;;;;;5119388;28;20198;-77
2022/04/16 14:47:21;;;;;;;2.13;1.70;;;;;;;;;;5119872;28;20350;-79
2022/04/16 14:49:49;;;;;;;3.57;1.30;;;;;;;;;;5119240;28;20205;-77
2022/04/16 14:52:17;;;;;;;8.30;1.63;;;;;;;;;;5121071;28;20208;-79
2022/04/16 14:54:45;;;;;;;3.20;1.53;;;;;;;;;;5120110;28;20288;-77
2022/04/16 14:57:35;;;;;;;1.87;1.50;;;;;;;;;;5118356;28;20669;-79
2022/04/16 15:00:03;;;;;;;3.00;1.50;;;;;;;;;;5120342;28;20234;-75
2022/04/16 15:02:32;;;;;;;1.27;1.17;;;;;;;;;;5119260;28;20234;-78
2022/04/16 15:05:00;;;;;;;1.43;1.20;;;;;;;;;;5119354;28;20202;-78
2022/04/16 15:07:28;;;;;;;2.23;1.40;;;;;;;;;;5120115;28;20228;-78
2022/04/16 15:09:56;;;;;;;2.30;1.23;;;;;;;;;;5119758;28;20211;-80
2022/04/16 15:12:25;;;;;;;1.20;1.10;;;;;;;;;;5119659;28;20201;-79
2022/04/16 15:14:54;;;;;;;1.20;1.10;;;;;;;;;;5119695;28;20197;-79
2022/04/16 15:17:24;;;;;;;1.40;1.30;;;;;;;;;;5119953;28;20213;-78
2022/04/16 15:19:53;;;;;;;1.43;1.30;;;;;;;;;;5119728;28;20231;-78